sensor_id;sensor_type;location;lat;lon;timestamp;temperature;humidity
15916;DHT22;8057;47.830;-3.870;2023-07-20T00:03:10;15.10;99.90
15916;DHT22;8057;47.830;-3.870;2023-07-20T00:07:20;15.00;99.90
15916;DHT22;8057;47.830;-3.870;2023-07-20T00:11:29;15.00;99.90
15916;DHT22;8057;47.830;-3.870;2023-07-20T00:15:39;15.00;99.90
15916;DHT22;8057;47.830;-3.870;2023-07-20T00:19:48;14.90;99.90
15916;DHT22;8057;47.830;-3.870;2023-07-20T00:23:57;14.80;99.90
15916;DHT22;8057;47.830;-3.870;2023-07-20T00:28:06;14.70;99.90
15916;DHT22;8057;47.830;-3.870;2023-07-20T00:32:17;14.60;99.90
15916;DHT22;8057;47.830;-3.870;2023-07-20T00:36:26;14.60;99.90
15916;DHT22;8057;47.830;-3.870;2023-07-20T00:40:39;14.60;99.90
15916;DHT22;8057;47.830;-3.870;2023-07-20T00:44:48;14.60;99.90
15916;DHT22;8057;47.830;-3.870;2023-07-20T00:48:59;14.60;99.90
15916;DHT22;8057;47.830;-3.870;2023-07-20T00:53:09;14.60;99.90
15916;DHT22;8057;47.830;-3.870;2023-07-20T00:57:19;14.70;99.90
15916;DHT22;8057;47.830;-3.870;2023-07-20T01:01:28;14.70;99.90
15916;DHT22;8057;47.830;-3.870;2023-07-20T01:05:47;14.70;99.90
15916;DHT22;8057;47.830;-3.870;2023-07-20T01:10:02;14.80;99.90
15916;DHT22;8057;47.830;-3.870;2023-07-20T01:14:12;14.80;99.90
15916;DHT22;8057;47.830;-3.870;2023-07-20T01:18:21;14.80;99.90
15916;DHT22;8057;47.830;-3.870;2023-07-20T01:22:47;14.80;99.90
15916;DHT22;8057;47.830;-3.870;2023-07-20T01:27:25;14.90;99.90
15916;DHT22;8057;47.830;-3.870;2023-07-20T01:31:40;14.70;99.90
15916;DHT22;8057;47.830;-3.870;2023-07-20T01:35:54;14.50;99.90
15916;DHT22;8057;47.830;-3.870;2023-07-20T01:40:04;14.40;99.90
15916;DHT22;8057;47.830;-3.870;2023-07-20T01:44:14;14.30;99.90
15916;DHT22;8057;47.830;-3.870;2023-07-20T01:48:25;14.40;99.90
15916;DHT22;8057;47.830;-3.870;2023-07-20T01:52:34;14.40;99.90
15916;DHT22;8057;47.830;-3.870;2023-07-20T01:56:43;14.40;99.90
15916;DHT22;8057;47.830;-3.870;2023-07-20T02:00:52;14.30;99.90
15916;DHT22;8057;47.830;-3.870;2023-07-20T02:05:03;14.30;99.90
15916;DHT22;8057;47.830;-3.870;2023-07-20T02:09:13;14.30;99.90
15916;DHT22;8057;47.830;-3.870;2023-07-20T02:13:22;14.30;99.90
15916;DHT22;8057;47.830;-3.870;2023-07-20T02:17:31;14.30;99.90
15916;DHT22;8057;47.830;-3.870;2023-07-20T02:21:42;14.30;99.90
15916;DHT22;8057;47.830;-3.870;2023-07-20T02:25:51;14.20;99.90
15916;DHT22;8057;47.830;-3.870;2023-07-20T02:30:00;14.20;99.90
15916;DHT22;8057;47.830;-3.870;2023-07-20T02:34:10;14.20;99.90
15916;DHT22;8057;47.830;-3.870;2023-07-20T02:38:22;14.20;99.90
15916;DHT22;8057;47.830;-3.870;2023-07-20T02:42:31;14.20;99.90
15916;DHT22;8057;47.830;-3.870;2023-07-20T02:46:41;14.20;99.90
15916;DHT22;8057;47.830;-3.870;2023-07-20T02:50:50;14.10;99.90
15916;DHT22;8057;47.830;-3.870;2023-07-20T02:55:01;14.00;99.90
15916;DHT22;8057;47.830;-3.870;2023-07-20T02:59:10;14.10;99.90
15916;DHT22;8057;47.830;-3.870;2023-07-20T03:03:20;14.20;99.90
15916;DHT22;8057;47.830;-3.870;2023-07-20T03:07:29;14.20;99.90
15916;DHT22;8057;47.830;-3.870;2023-07-20T03:11:40;14.10;99.90
15916;DHT22;8057;47.830;-3.870;2023-07-20T03:15:50;14.10;99.90
15916;DHT22;8057;47.830;-3.870;2023-07-20T03:20:00;14.10;99.90
15916;DHT22;8057;47.830;-3.870;2023-07-20T03:24:10;14.10;99.90
15916;DHT22;8057;47.830;-3.870;2023-07-20T03:28:21;14.10;99.90
15916;DHT22;8057;47.830;-3.870;2023-07-20T03:32:30;14.10;99.90
15916;DHT22;8057;47.830;-3.870;2023-07-20T03:36:39;14.10;99.90
15916;DHT22;8057;47.830;-3.870;2023-07-20T03:40:52;14.20;99.90
15916;DHT22;8057;47.830;-3.870;2023-07-20T03:45:04;14.20;99.90
15916;DHT22;8057;47.830;-3.870;2023-07-20T03:49:13;14.10;99.90
15916;DHT22;8057;47.830;-3.870;2023-07-20T03:53:23;14.10;99.90
15916;DHT22;8057;47.830;-3.870;2023-07-20T03:57:32;14.10;99.90
15916;DHT22;8057;47.830;-3.870;2023-07-20T04:01:43;14.10;99.90
15916;DHT22;8057;47.830;-3.870;2023-07-20T04:05:53;14.10;99.90
15916;DHT22;8057;47.830;-3.870;2023-07-20T04:10:03;14.00;99.90
15916;DHT22;8057;47.830;-3.870;2023-07-20T04:14:12;14.00;99.90
15916;DHT22;8057;47.830;-3.870;2023-07-20T04:18:22;13.90;99.90
15916;DHT22;8057;47.830;-3.870;2023-07-20T04:22:32;14.00;99.90
15916;DHT22;8057;47.830;-3.870;2023-07-20T04:26:41;13.90;99.90
15916;DHT22;8057;47.830;-3.870;2023-07-20T04:30:50;13.90;99.90
15916;DHT22;8057;47.830;-3.870;2023-07-20T04:35:05;13.80;99.90
15916;DHT22;8057;47.830;-3.870;2023-07-20T04:39:14;13.70;99.90
15916;DHT22;8057;47.830;-3.870;2023-07-20T04:43:38;13.60;99.90
15916;DHT22;8057;47.830;-3.870;2023-07-20T04:47:49;13.60;99.90
15916;DHT22;8057;47.830;-3.870;2023-07-20T04:52:00;13.60;99.90
15916;DHT22;8057;47.830;-3.870;2023-07-20T04:56:10;13.60;99.90
15916;DHT22;8057;47.830;-3.870;2023-07-20T05:00:19;13.50;99.90
15916;DHT22;8057;47.830;-3.870;2023-07-20T05:04:29;13.40;99.90
15916;DHT22;8057;47.830;-3.870;2023-07-20T05:08:46;13.50;99.90
15916;DHT22;8057;47.830;-3.870;2023-07-20T05:12:55;13.50;99.90
15916;DHT22;8057;47.830;-3.870;2023-07-20T05:17:05;13.50;99.90
15916;DHT22;8057;47.830;-3.870;2023-07-20T05:21:14;13.50;99.90
15916;DHT22;8057;47.830;-3.870;2023-07-20T05:25:25;13.60;99.90
15916;DHT22;8057;47.830;-3.870;2023-07-20T05:29:37;13.60;99.90
15916;DHT22;8057;47.830;-3.870;2023-07-20T05:33:46;13.50;99.90
15916;DHT22;8057;47.830;-3.870;2023-07-20T05:37:55;13.50;99.90
15916;DHT22;8057;47.830;-3.870;2023-07-20T05:42:07;13.50;99.90
15916;DHT22;8057;47.830;-3.870;2023-07-20T05:46:16;13.50;99.90
15916;DHT22;8057;47.830;-3.870;2023-07-20T05:50:25;13.50;99.90
15916;DHT22;8057;47.830;-3.870;2023-07-20T05:54:35;13.60;99.90
15916;DHT22;8057;47.830;-3.870;2023-07-20T05:58:46;13.70;99.90
15916;DHT22;8057;47.830;-3.870;2023-07-20T06:02:55;13.80;99.90
15916;DHT22;8057;47.830;-3.870;2023-07-20T06:07:04;14.00;99.90
15916;DHT22;8057;47.830;-3.870;2023-07-20T06:11:15;14.20;99.90
15916;DHT22;8057;47.830;-3.870;2023-07-20T06:15:27;14.40;99.90
15916;DHT22;8057;47.830;-3.870;2023-07-20T06:19:36;14.60;99.90
15916;DHT22;8057;47.830;-3.870;2023-07-20T06:23:46;14.70;99.90
15916;DHT22;8057;47.830;-3.870;2023-07-20T06:27:58;14.80;99.90
15916;DHT22;8057;47.830;-3.870;2023-07-20T06:32:09;15.00;99.90
15916;DHT22;8057;47.830;-3.870;2023-07-20T06:36:18;15.20;99.90
15916;DHT22;8057;47.830;-3.870;2023-07-20T06:40:28;15.40;99.90
15916;DHT22;8057;47.830;-3.870;2023-07-20T06:44:40;15.50;99.90
15916;DHT22;8057;47.830;-3.870;2023-07-20T06:48:50;15.60;99.90
15916;DHT22;8057;47.830;-3.870;2023-07-20T06:53:03;15.80;99.90
15916;DHT22;8057;47.830;-3.870;2023-07-20T06:57:12;15.90;99.90
15916;DHT22;8057;47.830;-3.870;2023-07-20T07:01:25;16.00;99.90
15916;DHT22;8057;47.830;-3.870;2023-07-20T07:05:37;16.10;99.90
15916;DHT22;8057;47.830;-3.870;2023-07-20T07:09:47;16.20;99.90
15916;DHT22;8057;47.830;-3.870;2023-07-20T07:13:56;16.40;99.90
15916;DHT22;8057;47.830;-3.870;2023-07-20T07:18:05;16.50;99.90
15916;DHT22;8057;47.830;-3.870;2023-07-20T07:22:16;16.60;99.90
15916;DHT22;8057;47.830;-3.870;2023-07-20T07:26:25;16.70;99.90
15916;DHT22;8057;47.830;-3.870;2023-07-20T07:30:35;16.80;99.90
15916;DHT22;8057;47.830;-3.870;2023-07-20T07:34:44;17.00;99.90
15916;DHT22;8057;47.830;-3.870;2023-07-20T07:38:55;17.10;99.90
15916;DHT22;8057;47.830;-3.870;2023-07-20T07:43:07;17.10;99.90
15916;DHT22;8057;47.830;-3.870;2023-07-20T07:47:16;17.10;99.90
15916;DHT22;8057;47.830;-3.870;2023-07-20T07:51:26;17.20;99.90
15916;DHT22;8057;47.830;-3.870;2023-07-20T07:55:37;17.20;99.90
15916;DHT22;8057;47.830;-3.870;2023-07-20T07:59:46;17.10;99.90
15916;DHT22;8057;47.830;-3.870;2023-07-20T08:03:55;17.20;99.90
15916;DHT22;8057;47.830;-3.870;2023-07-20T08:08:05;17.30;99.90
15916;DHT22;8057;47.830;-3.870;2023-07-20T08:12:15;17.40;99.90
15916;DHT22;8057;47.830;-3.870;2023-07-20T08:16:27;17.50;99.90
15916;DHT22;8057;47.830;-3.870;2023-07-20T08:20:37;17.60;99.90
15916;DHT22;8057;47.830;-3.870;2023-07-20T08:24:46;17.80;99.90
15916;DHT22;8057;47.830;-3.870;2023-07-20T08:28:58;18.00;99.90
15916;DHT22;8057;47.830;-3.870;2023-07-20T08:33:07;18.20;99.90
15916;DHT22;8057;47.830;-3.870;2023-07-20T08:37:16;18.50;99.90
15916;DHT22;8057;47.830;-3.870;2023-07-20T08:41:25;18.60;99.90
15916;DHT22;8057;47.830;-3.870;2023-07-20T08:45:36;18.40;99.90
15916;DHT22;8057;47.830;-3.870;2023-07-20T08:49:48;18.30;99.90
15916;DHT22;8057;47.830;-3.870;2023-07-20T08:53:59;18.20;99.90
15916;DHT22;8057;47.830;-3.870;2023-07-20T08:58:08;18.00;99.90
15916;DHT22;8057;47.830;-3.870;2023-07-20T09:02:23;18.00;99.90
15916;DHT22;8057;47.830;-3.870;2023-07-20T09:06:35;18.10;99.90
15916;DHT22;8057;47.830;-3.870;2023-07-20T09:10:44;18.20;99.90
15916;DHT22;8057;47.830;-3.870;2023-07-20T09:14:57;18.30;99.90
15916;DHT22;8057;47.830;-3.870;2023-07-20T09:19:07;18.30;99.90
15916;DHT22;8057;47.830;-3.870;2023-07-20T09:23:16;18.20;99.90
15916;DHT22;8057;47.830;-3.870;2023-07-20T09:27:35;18.30;99.90
15916;DHT22;8057;47.830;-3.870;2023-07-20T09:31:58;18.60;99.90
15916;DHT22;8057;47.830;-3.870;2023-07-20T09:36:11;18.70;99.90
15916;DHT22;8057;47.830;-3.870;2023-07-20T09:40:40;19.00;99.90
15916;DHT22;8057;47.830;-3.870;2023-07-20T09:44:53;19.30;99.90
15916;DHT22;8057;47.830;-3.870;2023-07-20T09:49:02;19.70;99.90
15916;DHT22;8057;47.830;-3.870;2023-07-20T09:53:17;20.20;99.90
15916;DHT22;8057;47.830;-3.870;2023-07-20T09:57:26;20.40;99.90
15916;DHT22;8057;47.830;-3.870;2023-07-20T10:01:37;20.00;99.90
15916;DHT22;8057;47.830;-3.870;2023-07-20T10:05:51;19.90;99.90
15916;DHT22;8057;47.830;-3.870;2023-07-20T10:10:02;20.30;99.90
15916;DHT22;8057;47.830;-3.870;2023-07-20T10:14:16;20.70;99.90
15916;DHT22;8057;47.830;-3.870;2023-07-20T10:18:29;20.80;99.90
15916;DHT22;8057;47.830;-3.870;2023-07-20T10:22:39;20.80;99.90
15916;DHT22;8057;47.830;-3.870;2023-07-20T10:26:50;21.10;99.90
15916;DHT22;8057;47.830;-3.870;2023-07-20T10:31:00;21.10;99.90
15916;DHT22;8057;47.830;-3.870;2023-07-20T10:35:13;20.80;99.90
15916;DHT22;8057;47.830;-3.870;2023-07-20T10:39:23;20.80;99.90
15916;DHT22;8057;47.830;-3.870;2023-07-20T10:43:37;21.00;99.90
15916;DHT22;8057;47.830;-3.870;2023-07-20T10:47:51;21.30;99.90
15916;DHT22;8057;47.830;-3.870;2023-07-20T10:52:05;21.40;99.90
15916;DHT22;8057;47.830;-3.870;2023-07-20T10:56:19;21.20;99.90
15916;DHT22;8057;47.830;-3.870;2023-07-20T11:00:30;20.90;99.90
15916;DHT22;8057;47.830;-3.870;2023-07-20T11:04:40;20.60;99.90
15916;DHT22;8057;47.830;-3.870;2023-07-20T11:08:55;20.20;99.90
15916;DHT22;8057;47.830;-3.870;2023-07-20T11:13:22;20.50;99.90
15916;DHT22;8057;47.830;-3.870;2023-07-20T11:17:34;20.40;99.90
15916;DHT22;8057;47.830;-3.870;2023-07-20T11:21:47;20.60;99.90
15916;DHT22;8057;47.830;-3.870;2023-07-20T11:26:08;20.90;99.90
15916;DHT22;8057;47.830;-3.870;2023-07-20T11:30:18;20.90;99.90
15916;DHT22;8057;47.830;-3.870;2023-07-20T11:34:31;20.90;99.90
15916;DHT22;8057;47.830;-3.870;2023-07-20T11:38:41;20.90;99.90
15916;DHT22;8057;47.830;-3.870;2023-07-20T11:42:51;20.80;99.90
15916;DHT22;8057;47.830;-3.870;2023-07-20T11:47:06;20.90;99.90
15916;DHT22;8057;47.830;-3.870;2023-07-20T11:51:18;20.60;99.90
15916;DHT22;8057;47.830;-3.870;2023-07-20T11:55:28;20.70;99.90
15916;DHT22;8057;47.830;-3.870;2023-07-20T11:59:37;20.90;99.90
15916;DHT22;8057;47.830;-3.870;2023-07-20T12:04:02;21.10;99.90
15916;DHT22;8057;47.830;-3.870;2023-07-20T12:08:13;21.10;99.90
15916;DHT22;8057;47.830;-3.870;2023-07-20T12:12:22;21.30;99.90
15916;DHT22;8057;47.830;-3.870;2023-07-20T12:16:35;21.40;99.90
15916;DHT22;8057;47.830;-3.870;2023-07-20T12:20:46;21.20;99.90
15916;DHT22;8057;47.830;-3.870;2023-07-20T12:24:57;21.20;99.90
15916;DHT22;8057;47.830;-3.870;2023-07-20T12:29:06;21.30;99.90
15916;DHT22;8057;47.830;-3.870;2023-07-20T12:33:15;21.50;99.90
15916;DHT22;8057;47.830;-3.870;2023-07-20T12:37:24;21.70;99.90
15916;DHT22;8057;47.830;-3.870;2023-07-20T12:41:35;22.00;99.90
15916;DHT22;8057;47.830;-3.870;2023-07-20T12:45:44;21.80;99.90
15916;DHT22;8057;47.830;-3.870;2023-07-20T12:49:53;21.60;99.90
15916;DHT22;8057;47.830;-3.870;2023-07-20T12:54:02;21.60;99.90
15916;DHT22;8057;47.830;-3.870;2023-07-20T12:58:13;21.50;99.90
15916;DHT22;8057;47.830;-3.870;2023-07-20T13:02:22;21.30;99.90
15916;DHT22;8057;47.830;-3.870;2023-07-20T13:06:31;21.40;99.90
15916;DHT22;8057;47.830;-3.870;2023-07-20T13:10:43;21.50;99.90
15916;DHT22;8057;47.830;-3.870;2023-07-20T13:14:54;21.90;99.90
15916;DHT22;8057;47.830;-3.870;2023-07-20T13:19:03;21.90;99.90
15916;DHT22;8057;47.830;-3.870;2023-07-20T13:23:12;22.10;99.90
15916;DHT22;8057;47.830;-3.870;2023-07-20T13:27:21;21.90;99.90
15916;DHT22;8057;47.830;-3.870;2023-07-20T13:31:33;21.90;99.90
15916;DHT22;8057;47.830;-3.870;2023-07-20T13:35:42;21.70;99.90
15916;DHT22;8057;47.830;-3.870;2023-07-20T13:39:54;21.40;99.90
15916;DHT22;8057;47.830;-3.870;2023-07-20T13:44:04;21.20;99.90
15916;DHT22;8057;47.830;-3.870;2023-07-20T13:48:14;21.00;99.90
15916;DHT22;8057;47.830;-3.870;2023-07-20T13:52:30;20.80;99.90
15916;DHT22;8057;47.830;-3.870;2023-07-20T13:56:42;20.70;99.90
15916;DHT22;8057;47.830;-3.870;2023-07-20T14:00:51;20.60;99.90
15916;DHT22;8057;47.830;-3.870;2023-07-20T14:05:02;20.60;99.90
15916;DHT22;8057;47.830;-3.870;2023-07-20T14:09:14;20.70;99.90
15916;DHT22;8057;47.830;-3.870;2023-07-20T14:13:23;20.80;99.90
15916;DHT22;8057;47.830;-3.870;2023-07-20T14:17:52;20.80;99.90
15916;DHT22;8057;47.830;-3.870;2023-07-20T14:22:03;21.30;99.90
15916;DHT22;8057;47.830;-3.870;2023-07-20T14:26:12;21.50;99.90
15916;DHT22;8057;47.830;-3.870;2023-07-20T14:30:21;21.40;99.90
15916;DHT22;8057;47.830;-3.870;2023-07-20T14:34:31;21.40;99.90
15916;DHT22;8057;47.830;-3.870;2023-07-20T14:38:45;21.50;99.90
15916;DHT22;8057;47.830;-3.870;2023-07-20T14:42:55;21.40;99.90
15916;DHT22;8057;47.830;-3.870;2023-07-20T14:47:05;21.20;99.90
15916;DHT22;8057;47.830;-3.870;2023-07-20T14:51:21;21.30;99.90
15916;DHT22;8057;47.830;-3.870;2023-07-20T14:55:32;21.20;99.90
15916;DHT22;8057;47.830;-3.870;2023-07-20T14:59:42;21.20;99.90
15916;DHT22;8057;47.830;-3.870;2023-07-20T15:03:51;21.30;99.90
15916;DHT22;8057;47.830;-3.870;2023-07-20T15:08:05;21.50;99.90
15916;DHT22;8057;47.830;-3.870;2023-07-20T15:12:17;21.60;99.90
15916;DHT22;8057;47.830;-3.870;2023-07-20T15:16:26;21.80;99.90
15916;DHT22;8057;47.830;-3.870;2023-07-20T15:20:35;21.90;99.90
15916;DHT22;8057;47.830;-3.870;2023-07-20T15:24:45;21.80;99.90
15916;DHT22;8057;47.830;-3.870;2023-07-20T15:28:56;21.70;99.90
15916;DHT22;8057;47.830;-3.870;2023-07-20T15:33:05;21.60;99.90
15916;DHT22;8057;47.830;-3.870;2023-07-20T15:37:17;21.30;99.90
15916;DHT22;8057;47.830;-3.870;2023-07-20T15:41:26;21.10;99.90
15916;DHT22;8057;47.830;-3.870;2023-07-20T15:45:38;21.20;99.90
15916;DHT22;8057;47.830;-3.870;2023-07-20T15:49:47;21.10;99.90
15916;DHT22;8057;47.830;-3.870;2023-07-20T15:53:57;21.00;99.90
15916;DHT22;8057;47.830;-3.870;2023-07-20T15:58:06;20.80;99.90
15916;DHT22;8057;47.830;-3.870;2023-07-20T16:02:17;20.60;99.90
15916;DHT22;8057;47.830;-3.870;2023-07-20T16:06:26;20.60;99.90
15916;DHT22;8057;47.830;-3.870;2023-07-20T16:10:35;20.50;99.90
15916;DHT22;8057;47.830;-3.870;2023-07-20T16:14:44;20.30;99.90
15916;DHT22;8057;47.830;-3.870;2023-07-20T16:18:58;20.30;99.90
15916;DHT22;8057;47.830;-3.870;2023-07-20T16:23:07;20.20;99.90
15916;DHT22;8057;47.830;-3.870;2023-07-20T16:27:16;20.10;99.90
15916;DHT22;8057;47.830;-3.870;2023-07-20T16:31:25;20.10;99.90
15916;DHT22;8057;47.830;-3.870;2023-07-20T16:35:38;20.10;99.90
15916;DHT22;8057;47.830;-3.870;2023-07-20T16:39:51;20.10;99.90
15916;DHT22;8057;47.830;-3.870;2023-07-20T16:44:01;20.20;99.90
15916;DHT22;8057;47.830;-3.870;2023-07-20T16:48:12;20.10;99.90
15916;DHT22;8057;47.830;-3.870;2023-07-20T16:52:27;20.20;99.90
15916;DHT22;8057;47.830;-3.870;2023-07-20T16:56:37;20.30;99.90
15916;DHT22;8057;47.830;-3.870;2023-07-20T17:00:47;20.10;99.90
15916;DHT22;8057;47.830;-3.870;2023-07-20T17:04:59;20.00;99.90
15916;DHT22;8057;47.830;-3.870;2023-07-20T17:09:10;19.90;99.90
15916;DHT22;8057;47.830;-3.870;2023-07-20T17:13:19;19.70;99.90
15916;DHT22;8057;47.830;-3.870;2023-07-20T17:17:28;19.60;99.90
15916;DHT22;8057;47.830;-3.870;2023-07-20T17:21:37;19.50;99.90
15916;DHT22;8057;47.830;-3.870;2023-07-20T17:25:48;19.40;99.90
15916;DHT22;8057;47.830;-3.870;2023-07-20T17:30:01;19.30;99.90
15916;DHT22;8057;47.830;-3.870;2023-07-20T17:34:11;19.30;99.90
15916;DHT22;8057;47.830;-3.870;2023-07-20T17:38:20;19.30;99.90
15916;DHT22;8057;47.830;-3.870;2023-07-20T17:42:35;19.30;99.90
15916;DHT22;8057;47.830;-3.870;2023-07-20T17:46:47;19.10;99.90
15916;DHT22;8057;47.830;-3.870;2023-07-20T17:51:00;19.00;99.90
15916;DHT22;8057;47.830;-3.870;2023-07-20T17:55:09;19.00;99.90
15916;DHT22;8057;47.830;-3.870;2023-07-20T17:59:20;19.10;99.90
15916;DHT22;8057;47.830;-3.870;2023-07-20T18:03:29;19.00;99.90
15916;DHT22;8057;47.830;-3.870;2023-07-20T18:07:39;18.90;99.90
15916;DHT22;8057;47.830;-3.870;2023-07-20T18:11:48;18.80;99.90
15916;DHT22;8057;47.830;-3.870;2023-07-20T18:15:59;18.70;99.90
15916;DHT22;8057;47.830;-3.870;2023-07-20T18:20:09;18.60;99.90
15916;DHT22;8057;47.830;-3.870;2023-07-20T18:24:19;18.50;99.90
15916;DHT22;8057;47.830;-3.870;2023-07-20T18:28:28;18.40;99.90
15916;DHT22;8057;47.830;-3.870;2023-07-20T18:32:38;18.30;99.90
15916;DHT22;8057;47.830;-3.870;2023-07-20T18:36:47;18.30;99.90
15916;DHT22;8057;47.830;-3.870;2023-07-20T18:40:56;18.20;99.90
15916;DHT22;8057;47.830;-3.870;2023-07-20T18:45:06;18.00;99.90
15916;DHT22;8057;47.830;-3.870;2023-07-20T18:49:17;18.00;99.90
15916;DHT22;8057;47.830;-3.870;2023-07-20T18:53:26;17.90;99.90
15916;DHT22;8057;47.830;-3.870;2023-07-20T18:57:35;17.80;99.90
15916;DHT22;8057;47.830;-3.870;2023-07-20T19:01:45;17.70;99.90
15916;DHT22;8057;47.830;-3.870;2023-07-20T19:05:56;17.50;99.90
15916;DHT22;8057;47.830;-3.870;2023-07-20T19:10:06;17.30;99.90
15916;DHT22;8057;47.830;-3.870;2023-07-20T19:14:17;17.30;99.90
15916;DHT22;8057;47.830;-3.870;2023-07-20T19:18:26;17.30;99.90
15916;DHT22;8057;47.830;-3.870;2023-07-20T19:22:37;17.20;99.90
15916;DHT22;8057;47.830;-3.870;2023-07-20T19:26:46;17.10;99.90
15916;DHT22;8057;47.830;-3.870;2023-07-20T19:30:56;17.10;99.90
15916;DHT22;8057;47.830;-3.870;2023-07-20T19:35:05;17.00;99.90
15916;DHT22;8057;47.830;-3.870;2023-07-20T19:39:19;16.90;99.90
15916;DHT22;8057;47.830;-3.870;2023-07-20T19:43:28;16.90;99.90
15916;DHT22;8057;47.830;-3.870;2023-07-20T19:47:38;16.80;99.90
15916;DHT22;8057;47.830;-3.870;2023-07-20T19:51:48;16.80;99.90
15916;DHT22;8057;47.830;-3.870;2023-07-20T19:55:59;16.70;99.90
15916;DHT22;8057;47.830;-3.870;2023-07-20T20:00:10;16.80;99.90
15916;DHT22;8057;47.830;-3.870;2023-07-20T20:04:19;16.70;99.90
15916;DHT22;8057;47.830;-3.870;2023-07-20T20:08:31;16.70;99.90
15916;DHT22;8057;47.830;-3.870;2023-07-20T20:12:42;16.60;99.90
15916;DHT22;8057;47.830;-3.870;2023-07-20T20:16:51;16.60;99.90
15916;DHT22;8057;47.830;-3.870;2023-07-20T20:21:00;16.50;99.90
15916;DHT22;8057;47.830;-3.870;2023-07-20T20:25:10;16.50;99.90
15916;DHT22;8057;47.830;-3.870;2023-07-20T20:29:21;16.50;99.90
15916;DHT22;8057;47.830;-3.870;2023-07-20T20:33:30;16.50;99.90
15916;DHT22;8057;47.830;-3.870;2023-07-20T20:37:43;16.50;99.90
15916;DHT22;8057;47.830;-3.870;2023-07-20T20:41:52;16.40;99.90
15916;DHT22;8057;47.830;-3.870;2023-07-20T20:46:03;16.40;99.90
15916;DHT22;8057;47.830;-3.870;2023-07-20T20:50:14;16.40;99.90
15916;DHT22;8057;47.830;-3.870;2023-07-20T20:54:27;16.40;99.90
15916;DHT22;8057;47.830;-3.870;2023-07-20T20:58:36;16.40;99.90
15916;DHT22;8057;47.830;-3.870;2023-07-20T21:02:46;16.40;99.90
15916;DHT22;8057;47.830;-3.870;2023-07-20T21:06:56;16.40;99.90
15916;DHT22;8057;47.830;-3.870;2023-07-20T21:11:05;16.40;99.90
15916;DHT22;8057;47.830;-3.870;2023-07-20T21:15:15;16.40;99.90
15916;DHT22;8057;47.830;-3.870;2023-07-20T21:19:26;16.40;99.90
15916;DHT22;8057;47.830;-3.870;2023-07-20T21:23:35;16.40;99.90
15916;DHT22;8057;47.830;-3.870;2023-07-20T21:27:44;16.40;99.90
15916;DHT22;8057;47.830;-3.870;2023-07-20T21:31:53;16.40;99.90
15916;DHT22;8057;47.830;-3.870;2023-07-20T21:36:04;16.40;99.90
15916;DHT22;8057;47.830;-3.870;2023-07-20T21:40:14;16.30;99.90
15916;DHT22;8057;47.830;-3.870;2023-07-20T21:44:23;16.20;99.90
15916;DHT22;8057;47.830;-3.870;2023-07-20T21:48:32;16.20;99.90
15916;DHT22;8057;47.830;-3.870;2023-07-20T21:52:44;16.20;99.90
15916;DHT22;8057;47.830;-3.870;2023-07-20T21:56:53;16.20;99.90
15916;DHT22;8057;47.830;-3.870;2023-07-20T22:01:03;16.30;99.90
15916;DHT22;8057;47.830;-3.870;2023-07-20T22:05:33;16.30;99.90
15916;DHT22;8057;47.830;-3.870;2023-07-20T22:09:44;16.30;99.90
15916;DHT22;8057;47.830;-3.870;2023-07-20T22:13:54;16.20;99.90
15916;DHT22;8057;47.830;-3.870;2023-07-20T22:18:03;16.20;99.90
15916;DHT22;8057;47.830;-3.870;2023-07-20T22:22:19;16.20;99.90
15916;DHT22;8057;47.830;-3.870;2023-07-20T22:26:30;16.20;99.90
15916;DHT22;8057;47.830;-3.870;2023-07-20T22:30:39;16.20;99.90
15916;DHT22;8057;47.830;-3.870;2023-07-20T22:34:48;16.10;99.90
15916;DHT22;8057;47.830;-3.870;2023-07-20T22:38:57;16.10;99.90
15916;DHT22;8057;47.830;-3.870;2023-07-20T22:43:08;16.00;99.90
15916;DHT22;8057;47.830;-3.870;2023-07-20T22:47:17;16.00;99.90
15916;DHT22;8057;47.830;-3.870;2023-07-20T22:51:27;16.10;99.90
15916;DHT22;8057;47.830;-3.870;2023-07-20T22:55:36;16.00;99.90
15916;DHT22;8057;47.830;-3.870;2023-07-20T22:59:47;16.00;99.90
15916;DHT22;8057;47.830;-3.870;2023-07-20T23:03:57;15.90;99.90
15916;DHT22;8057;47.830;-3.870;2023-07-20T23:08:07;15.90;99.90
15916;DHT22;8057;47.830;-3.870;2023-07-20T23:12:16;15.90;99.90
15916;DHT22;8057;47.830;-3.870;2023-07-20T23:16:27;15.90;99.90
15916;DHT22;8057;47.830;-3.870;2023-07-20T23:20:36;15.80;99.90
15916;DHT22;8057;47.830;-3.870;2023-07-20T23:24:45;15.80;99.90
15916;DHT22;8057;47.830;-3.870;2023-07-20T23:28:55;15.70;99.90
15916;DHT22;8057;47.830;-3.870;2023-07-20T23:33:05;15.70;99.90
15916;DHT22;8057;47.830;-3.870;2023-07-20T23:37:14;15.50;99.90
15916;DHT22;8057;47.830;-3.870;2023-07-20T23:41:24;15.50;99.90
15916;DHT22;8057;47.830;-3.870;2023-07-20T23:45:33;15.30;99.90
15916;DHT22;8057;47.830;-3.870;2023-07-20T23:49:44;15.20;99.90
15916;DHT22;8057;47.830;-3.870;2023-07-20T23:53:55;15.10;99.90
15916;DHT22;8057;47.830;-3.870;2023-07-20T23:58:04;15.10;99.90
